Bellevue, WA (98006)

9:58 PM PST on February 06, 2016 (GMT -0800)
Glendale 3rd Tee | | Change Station
CLOSE
Current Station
Personal Weather Station
Location: Bellevue, WA
Elevation: 138 ft
Nearby Weather Stations

Elev 138 ft 47.61 °N, 122.16 °W | Updated 2 seconds ago

Clear
Clear
41.9 °F
Feels Like 37 °F
N
7.0
Wind Variable Wind from East
Gusts 9.0 mph

Today
High -- | Low -- °F
--% Chance of Precip.
Yesterday
High -- | Low -- °F
Precip. -- in
Pressure 30.52 in
Visibility 7.0 miles
Clouds Clear
Windchill 37 °F
Dew Point 38 °F
Humidity 87%
Rainfall 0.00 in
Snow Depth Not available.
7:28 AM 5:17 PM
Waning Crescent, 2% visible
METAR KRNT 070553Z AUTO 00000KT 7SM CLR 04/02 A3050 RMK AO2 SLP334 T00390022 10106 20039 53010
Pressure 30.52 in
Visibility 7.0 miles
Clouds Clear
Windchill 37 °F
Dew Point 38 °F
Humidity 87%
Rainfall 0.00 in
Snow Depth Not available.
7:28 AM 5:17 PM
Waning Crescent, 2% visible
METAR KRNT 070553Z AUTO 00000KT 7SM CLR 04/02 A3050 RMK AO2 SLP334 T00390022 10106 20039 53010

10-Day Weather Forecast

Almanac

Astronomy

Feb. 06, 2016 Rise Set
Actual Time
Civil Twilight
Nautical Twilight
Astronomical Twilight
Moon
Length of Visible Light
Length of Day
Tomorrow will be .
, % of the Moon is Illuminated

Today's Extremes

State Highs State Lows

Community

WunderPhotos

Upload Photos

1,891,167 photos uploaded!

WunderBlog® & News

Nearby

Air Quality

  Air Quality AQ Index Pollutant
Not available.

Snow Depth

Station Depth Elevation

Earthquake Activity

City Distance Mag. Time & Date
Minimum magnitude displayed is 2.5.

Coastal Water Temperatures

Place Temperature

Stations

Nearby Weather Stations

Station Location Temp. Windchill Dew Point Humidity Wind Precip. Elev Updated Type
                   

Watches & Warnings

There are currently no watches in effect.